x

Seal Rocks - Between Montague And Hinchinbrook Islands, Ak (46061) Wave Buoy

11:50am - Sat 29th Aug 2015 All times are AKDT. -8 hours from GMT.

  • Sig Wave height 2.0ft
  • Swell Direction
  • Peak Period 5s
  • Average Period 5s
  • Wind
    7mph, 9mph gusts
  • Sea Temp 57°f
  • Air Temp 54°f
  • Sea Pressure 993.6mb
  • Seal Rocks - Between Montague And Hinchinbrook Islands, Ak
  • Seal Rocks - Between Montague And Hinchinbrook Islands, Ak

More Historic Weather Station data

Upgrade to MSW Pro to gain access to the past 30 days of data for over 8000 Wavebouys and Weather Stations around the globe.

Join Pro

Comparision Forecast

View Surf forecast
   
Sat 08/29 11:50am 2ft 5s 5s 7 9 mph 993.6mb 57f 54f
10:50am 1.6ft 6s 5s 7 9 mph 994mb 56f 54f
9:50am 1.6ft 5s 5s 4 7 mph 994.7mb 56f 53f
8:50am 1.3ft 6s 5s 4 7 mph 995.3mb 56f 54f
7:50am 1.6ft 4s 4s 7 9 mph 996.1mb 56f 54f
6:50am 2ft 4s 4s 11
mph
996.5mb 56f 54f
5:50am 2ft 7s 4s 16 18 mph 997.1mb 56f 55f
4:50am 1.6ft 13s 4s 18 22 mph 997.6mb 57f 56f
3:50am 2ft 4s 4s 18 22 mph 997.6mb 56f 56f
2:50am 2ft 4s 4s 18 20 mph 997.9mb 56f 56f
1:50am 2.5ft 4s 4s 20 25 mph 998mb 56f 57f
12:50am 2.5ft 5s 4s 20 22 mph 998.2mb 56f 57f
Fri 08/28 11:50pm 3ft 5s 4s 20 25 mph 998.3mb 56f 57f
10:50pm 3.5ft 5s 4s 25 29 mph 998.4mb 56f 58f
9:50pm 3.5ft 5s 4s 22 29 mph 998.5mb 57f 58f
8:50pm 3.5ft 5s 4s 27 31 mph 998.5mb 57f 58f
7:50pm 3ft 4s 4s 27 31 mph 998.8mb 57f 59f
6:50pm 3ft 4s 4s 29 31 mph 998.9mb 58f 59f
5:50pm 3ft 4s 4s 27 29 mph 999.3mb 57f 58f
4:50pm 3.5ft 5s 4s 27 34 mph 999.3mb 57f 58f
3:50pm 3.5ft 4s 4s 27 31 mph 999.7mb 58f 58f
2:50pm 3.5ft 5s 4s 31 36 mph 999.6mb 57f 57f
1:50pm 4.5ft 5s 4s 29 36 mph 1000.1mb 57f 57f
12:50pm 4ft 5s 4s 31 38 mph 1000.7mb 56f 56f
11:50am 4.5ft 6s 4s 31 36 mph 1000.5mb 56f 56f
10:50am 4.5ft 6s 5s 34 38 mph 1000.8mb 57f 56f
9:50am 5ft 6s 5s 31 36 mph 1001.2mb 57f 56f
8:50am 5ft 6s 4s 34 40 mph 1000.9mb 57f 56f
7:50am 4.5ft 6s 4s 34 38 mph 1001.5mb 58f 56f
6:50am 4.5ft 6s 4s 34 40 mph 1001mb 58f 57f
5:50am 4.5ft 5s 4s 34 38 mph 1000.7mb 58f 57f
4:50am 4.5ft 5s 4s 31 38 mph 1000.4mb 58f 57f
3:50am 4ft 5s 4s 31 36 mph 1000.2mb 58f 58f
2:50am 4.5ft 5s 4s 31 38 mph 999.2mb 58f 58f
1:50am 4.5ft 5s 4s 31 38 mph 998.5mb 59f 58f
12:50am 6ft 6s 5s 36 43 mph 997.3mb 59f 59f
Thu 08/27 11:50pm 4.5ft 5s 4s 36 40 mph 996.7mb 60f 58f
10:50pm 3.5ft 5s 4s 36 45 mph 996.4mb 60f 59f
9:50pm 3ft 4s 4s 31 38 mph 996.7mb 60f 59f
8:50pm 3.5ft 4s 4s 34 40 mph 996.5mb 60f 61f
7:50pm 2.5ft 3s 4s 27 36 mph 996.3mb 60f 63f
6:50pm 2.5ft 8s 4s 25 29 mph 997.1mb 60f 63f
5:50pm 2ft 8s 4s 18 20 mph 997.9mb 60f 63f
4:50pm 2ft 8s 5s 13 18 mph 999.1mb 60f 59f
3:50pm 1.6ft 8s 5s 13 16 mph 1000mb 60f 58f
2:50pm 1.6ft 12s 4s 13 16 mph 1000.5mb 60f 57f
1:50pm 1.6ft 15s 4s 16 18 mph 1001.3mb 60f 57f
12:50pm 1.6ft 14s 5s 13 18 mph 1002.1mb 60f 57f
11:50am 1.6ft 14s 6s 2
mph
1002.8mb 59f 55f
10:50am 1.6ft 14s 5s 7 9 mph 1003.4mb 59f 55f
9:50am 2ft 14s 4s 11 13 mph 1003.9mb 59f 55f
8:50am 2ft 5s 4s 13 16 mph 1004.7mb 59f 55f
7:50am 2ft 5s 4s 11
mph
1006.3mb 60f 55f
6:50am 2ft 5s 5s 13 16 mph 1006.8mb 59f 55f
5:50am 2ft 5s 5s 11 13 mph 1008mb 59f 55f
4:50am 2ft 14s 5s 11 13 mph 1009.4mb 60f 56f
3:50am 1.6ft 15s 5s 13 18 mph 1009.5mb 60f 56f
2:50am 2ft 14s 5s 4 7 mph 1010.8mb 60f 56f
1:50am 2ft 5s 5s 13 16 mph 1011.3mb 60f 56f
12:50am 2ft 13s 4s 13 16 mph 1011.8mb 60f 56f
Wed 08/26 11:50pm 2ft 14s 4s 13 16 mph 1011.9mb 60f 56f
10:50pm 1.6ft 15s 5s 13 18 mph 1012.3mb 60f 56f
9:50pm 2ft 14s 5s 13 16 mph 1012.6mb 60f 57f
8:50pm 1.6ft 14s 5s 11 13 mph 1012.8mb 60f 57f
7:50pm 1.6ft 15s 4s 9 11 mph 1012.8mb 60f 58f
6:50pm 1.6ft 14s 4s 9
mph
1013.9mb 60f 58f
5:50pm 2ft 3s 4s 13 18 mph 1013.9mb 60f 57f
4:50pm 2ft 15s 4s 22 25 mph 1014.1mb 60f 57f
3:50pm 1.6ft 15s 5s 13 16 mph 1015.3mb 60f 58f
2:50pm 1.3ft 13s 5s 11 13 mph 1016mb 60f 58f
1:50pm 1.3ft 13s 6s 16 20 mph 1015.7mb 60f 58f
12:50pm 1.3ft 15s 5s 11 13 mph 1017.1mb 60f 58f
11:50am 1.3ft 15s 5s 13 18 mph 1017.6mb 60f 58f
10:50am 1.3ft 14s 5s 13 16 mph 1018mb 60f 57f
9:50am 1.3ft 15s 5s 13 16 mph 1018.6mb 60f 58f
8:50am 1.3ft 15s 5s 11 13 mph 1018.9mb 60f 58f
7:50am 1.3ft 13s 5s 11 13 mph 1019.3mb 60f 58f
6:50am 1.3ft 14s 7s 11 13 mph 1019.8mb 60f 58f
5:50am 1.3ft 15s 6s 9 11 mph 1020.1mb 60f 59f
4:50am 1.6ft 12s 6s 4
mph
1020.6mb 60f 59f
3:50am 1.6ft 14s 7s 4
mph
1020.6mb 60f 59f
2:50am 1.6ft 14s 7s 4
mph
1020.6mb 60f 59f
1:50am 1.3ft 15s 7s  -  2 mph 1021mb 61f 59f
12:50am 1.3ft 15s 7s  -  2 mph 1021.2mb 60f 59f
Tue 08/25 11:50pm 1.3ft 13s 6s  -  mph 1021.1mb 61f 60f
10:50pm 1.3ft 14s 7s 4
mph
1020.9mb 61f 60f
9:50pm 1.3ft 15s 6s 2 4 mph 1021.1mb 61f 60f